Time;durP1;ratioP1;P1;durP2;ratioP2;P2;SDS_P1;SDS_P2;PMS_P1;PMS_P2;Temp;Humidity;BMP_temperature;BMP_pressure;BME280_temperature;BME280_humidity;BME280_pressure;Samples;Min_cycle;Max_cycle;Signal;HPM_P1;HPM_P2
2023/04/19 00:01:11;;;;;;;1.90;1.50;;;11.90;99.90;;;11.95;68.00;94554.66;5074866;28;20438;-58
2023/04/19 00:03:38;;;;;;;1.50;1.40;;;11.90;99.90;;;11.97;67.89;94565.88;5075984;28;20864;-57
2023/04/19 00:06:09;;;;;;;2.10;1.87;;;11.90;99.90;;;11.96;67.98;94558.94;5074636;28;20451;-58
2023/04/19 00:08:36;;;;;;;3.63;2.70;;;11.90;99.90;;;11.94;67.69;94553.81;5076998;28;20531;-58
2023/04/19 00:11:03;;;;;;;2.17;2.00;;;11.90;99.90;;;11.92;67.69;94550.53;5075112;28;20834;-62
2023/04/19 00:13:31;;;;;;;2.10;1.77;;;11.90;99.90;;;11.92;67.83;94560.22;5078810;28;20470;-62
2023/04/19 00:15:58;;;;;;;1.47;1.37;;;11.90;99.90;;;11.92;67.44;94552.31;5073709;28;20458;-61
2023/04/19 00:18:25;;;;;;;1.23;1.13;;;11.90;99.90;;;11.91;67.50;94553.28;5079233;28;20477;-60
2023/04/19 00:20:53;;;;;;;2.03;1.93;;;11.90;99.90;;;11.91;67.66;94555.91;5073595;28;20494;-58
2023/04/19 00:23:21;;;;;;;1.60;1.50;;;11.90;99.90;;;11.90;67.30;94543.72;5080197;28;20466;-58
2023/04/19 00:25:49;;;;;;;3.80;1.90;;;11.90;99.90;;;11.89;67.46;94556.06;5073029;28;20477;-62
2023/04/19 00:28:17;;;;;;;2.23;1.50;;;11.90;99.90;;;11.88;67.47;94551.78;5076073;28;20876;-61
2023/04/19 00:30:44;;;;;;;2.03;1.80;;;11.90;99.90;;;11.89;67.40;94544.72;5070874;28;20473;-57
2023/04/19 00:33:12;;;;;;;2.23;2.03;;;11.80;99.90;;;11.86;66.98;94548.47;5072924;28;20466;-56
2023/04/19 00:35:41;;;;;;;1.57;1.47;;;11.80;99.90;;;11.83;67.39;94541.75;5073598;28;20520;-63
2023/04/19 00:38:08;;;;;;;1.93;1.63;;;11.80;99.90;;;11.84;67.88;94540.72;5077219;28;20973;-59
2023/04/19 00:40:37;;;;;;;1.87;1.50;;;11.80;99.90;;;11.86;67.40;94552.94;5076298;28;21036;-60
2023/04/19 00:43:05;;;;;;;2.10;1.90;;;11.80;99.90;;;11.88;67.99;94548.31;5076265;28;20473;-64
2023/04/19 00:45:34;;;;;;;2.23;1.50;;;11.80;99.90;;;11.90;67.61;94543.72;5076695;28;20465;-63
2023/04/19 00:48:03;;;;;;;2.10;1.90;;;11.80;99.90;;;11.93;67.97;94548.72;5077446;28;20462;-62
2023/04/19 00:50:32;;;;;;;5.60;1.83;;;11.90;99.90;;;11.92;68.01;94550.53;5076564;28;21558;-63
2023/04/19 00:52:59;;;;;;;2.07;1.87;;;11.90;99.90;;;11.93;68.14;94544.28;5073412;28;20545;-58
2023/04/19 00:55:27;;;;;;;1.73;1.63;;;11.90;99.90;;;11.94;67.93;94542.47;5077658;28;20805;-64
2023/04/19 00:57:56;;;;;;;2.23;2.03;;;11.90;99.90;;;11.93;68.08;94540.81;5074024;28;20582;-59
2023/04/19 01:00:23;;;;;;;1.70;1.60;;;11.90;99.90;;;11.93;68.15;94543.44;5076878;28;20493;-57
2023/04/19 01:02:50;;;;;;;1.30;1.10;;;11.90;99.90;;;11.92;68.25;94537.34;5076951;28;20875;-58
2023/04/19 01:05:18;;;;;;;2.07;1.80;;;11.90;99.90;;;11.92;68.26;94536.50;5078564;28;20477;-58
2023/04/19 01:07:45;;;;;;;1.40;1.30;;;11.90;99.90;;;11.92;68.32;94533.88;5074877;28;20471;-57
2023/04/19 01:10:12;;;;;;;2.00;1.30;;;11.90;99.90;;;11.91;67.91;94532.19;5077171;28;20780;-59
2023/04/19 01:12:40;;;;;;;2.00;1.80;;;11.90;99.90;;;11.90;67.90;94533.19;5076731;28;20478;-58
2023/04/19 01:15:10;;;;;;;1.70;1.60;;;11.90;99.90;;;11.89;67.48;94534.19;5083710;28;20457;-57
2023/04/19 01:17:38;;;;;;;1.60;1.50;;;11.90;99.90;;;11.86;67.32;94534.50;5079722;28;20843;-63
2023/04/19 01:20:07;;;;;;;1.90;1.80;;;11.80;99.90;;;11.83;67.85;94533.84;5080818;28;21077;-63
2023/04/19 01:22:37;;;;;;;1.60;1.50;;;11.80;99.90;;;11.82;67.69;94534.00;5078990;28;21029;-57
2023/04/19 01:25:06;;;;;;;2.63;1.77;;;11.80;99.90;;;11.80;68.04;94531.50;5077252;28;20454;-63
2023/04/19 01:27:33;;;;;;;1.60;1.50;;;11.80;99.90;;;11.79;67.88;94527.22;5080000;28;20470;-62
2023/04/19 01:30:00;;;;;;;1.40;1.30;;;11.80;99.90;;;11.75;67.63;94525.84;5076279;28;20461;-58
2023/04/19 01:32:28;;;;;;;1.43;1.33;;;11.70;99.90;;;11.71;67.86;94529.81;5075145;28;20906;-56
2023/04/19 01:34:55;;;;;;;2.17;1.50;;;11.70;99.90;;;11.72;67.76;94530.63;5080332;28;20489;-62
2023/04/19 01:37:23;;;;;;;1.40;1.30;;;11.70;99.90;;;11.69;68.15;94521.22;5078627;28;20478;-63
2023/04/19 01:39:52;;;;;;;2.70;2.50;;;11.70;99.90;;;11.66;68.13;94519.72;5080127;28;20497;-63
2023/04/19 01:42:19;;;;;;;2.90;1.60;;;11.60;99.90;;;11.66;68.40;94526.78;5081929;28;20497;-57
2023/04/19 01:44:47;;;;;;;1.60;1.50;;;11.60;99.90;;;11.65;68.25;94522.53;5075574;28;20455;-63
2023/04/19 01:47:14;;;;;;;1.73;1.63;;;11.60;99.90;;;11.65;68.35;94525.16;5081088;28;20470;-63
2023/04/19 01:49:42;;;;;;;1.70;1.60;;;11.60;99.90;;;11.63;68.00;94527.09;5073930;28;21402;-63
2023/04/19 01:52:09;;;;;;;2.30;2.20;;;11.60;99.90;;;11.63;68.09;94517.41;5077657;28;20469;-63
2023/04/19 01:54:36;;;;;;;2.30;2.10;;;11.60;99.90;;;11.62;68.14;94512.28;5076527;28;20473;-58
2023/04/19 01:57:06;;;;;;;2.20;2.00;;;11.60;99.90;;;11.61;67.89;94518.53;5080489;28;21013;-63
2023/04/19 01:59:33;;;;;;;2.20;1.80;;;11.60;99.90;;;11.58;68.03;94521.47;5077396;28;20527;-63
2023/04/19 02:02:00;;;;;;;2.27;2.10;;;11.50;99.90;;;11.56;68.04;94524.25;5082932;28;20535;-58
2023/04/19 02:04:28;;;;;;;1.83;1.73;;;11.60;99.90;;;11.55;68.00;94524.41;5069403;28;20482;-58
2023/04/19 02:06:55;;;;;;;1.80;1.70;;;11.50;99.90;;;11.54;68.24;94520.13;5075741;28;20470;-63
2023/04/19 02:09:23;;;;;;;1.97;1.77;;;11.50;99.90;;;11.53;68.07;94521.13;5075376;28;20541;-58
2023/04/19 02:11:50;;;;;;;2.10;2.00;;;11.50;99.90;;;11.53;68.21;94521.13;5073630;28;20482;-62
2023/04/19 02:14:19;;;;;;;2.10;2.00;;;11.50;99.90;;;11.52;68.67;94524.72;5076155;28;20531;-61
2023/04/19 02:16:46;;;;;;;2.13;2.03;;;11.50;99.90;;;11.52;68.33;94524.72;5080715;28;20527;-58
2023/04/19 02:19:13;;;;;;;2.33;2.10;;;11.50;99.90;;;11.51;68.15;94525.69;5075991;28;20973;-61
2023/04/19 02:21:41;;;;;;;2.43;2.27;;;11.50;99.90;;;11.48;68.32;94522.41;5074102;28;20486;-58
2023/04/19 02:24:09;;;;;;;2.50;2.23;;;11.50;99.90;;;11.47;68.28;94523.38;5069277;28;20462;-57
2023/04/19 02:26:37;;;;;;;2.30;2.20;;;11.40;99.90;;;11.47;68.10;94522.56;5078967;28;20470;-59
2023/04/19 02:29:05;;;;;;;2.57;2.37;;;11.40;99.90;;;11.46;68.26;94521.75;5083102;28;20454;-63
2023/04/19 02:31:34;;;;;;;2.40;2.20;;;11.40;99.90;;;11.45;68.11;94517.44;5079835;28;20501;-59
2023/04/19 02:34:02;;;;;;;2.13;1.93;;;11.40;99.90;;;11.45;68.21;94508.72;5079593;28;20825;-64
2023/04/19 02:36:29;;;;;;;2.73;2.63;;;11.40;99.90;;;11.44;68.31;94513.13;5082436;28;20434;-56
2023/04/19 02:38:58;;;;;;;2.60;2.50;;;11.40;99.90;;;11.43;68.37;94511.50;5078325;28;20454;-63
2023/04/19 02:41:25;;;;;;;2.80;2.60;;;11.40;99.90;;;11.42;67.96;94509.84;5075414;28;20491;-62
2023/04/19 02:43:53;;;;;;;2.57;2.40;;;11.40;99.90;;;11.43;68.19;94511.50;5076171;28;20820;-62
2023/04/19 02:46:20;;;;;;;2.77;2.57;;;11.40;99.90;;;11.43;68.23;94511.50;5077591;28;20517;-64
2023/04/19 02:48:49;;;;;;;2.43;2.23;;;11.40;99.90;;;11.41;68.44;94510.81;5074586;28;20962;-63
2023/04/19 02:51:16;;;;;;;2.37;2.27;;;11.40;99.90;;;11.41;68.50;94508.19;5071750;28;20454;-57
2023/04/19 02:53:44;;;;;;;3.13;2.93;;;11.40;99.90;;;11.41;68.51;94505.56;5077839;28;20453;-60
2023/04/19 02:56:11;;;;;;;2.30;2.20;;;11.40;99.90;;;11.41;68.41;94507.38;5077959;28;20439;-62
2023/04/19 02:58:40;;;;;;;2.63;2.43;;;11.40;99.90;;;11.40;68.22;94506.56;5081445;28;20460;-57
2023/04/19 03:01:07;;;;;;;4.30;2.87;;;11.40;99.90;;;11.40;68.48;94500.44;5075899;28;20491;-64
2023/04/19 03:03:35;;;;;;;2.37;2.20;;;11.40;99.90;;;11.39;68.10;94504.88;5080010;28;20481;-56
2023/04/19 03:06:04;;;;;;;3.10;2.90;;;11.40;99.90;;;11.39;68.50;94507.53;5075533;28;20455;-63
2023/04/19 03:08:32;;;;;;;3.80;3.50;;;11.40;99.90;;;11.38;68.18;94507.69;5081146;28;20509;-59
2023/04/19 03:11:00;;;;;;;2.70;2.50;;;11.40;99.90;;;11.36;68.03;94510.47;5071902;28;20455;-61
2023/04/19 03:13:27;;;;;;;2.80;2.60;;;11.40;99.90;;;11.35;68.23;94503.53;5076819;28;20481;-60
2023/04/19 03:15:55;;;;;;;2.40;2.30;;;11.30;99.90;;;11.33;68.15;94508.13;5075601;28;20453;-58
2023/04/19 03:18:22;;;;;;;2.57;2.47;;;11.30;99.90;;;11.32;68.06;94510.91;5080335;28;20463;-59
2023/04/19 03:20:49;;;;;;;3.60;3.40;;;11.30;99.90;;;11.28;68.12;94507.78;5075711;28;20573;-59
2023/04/19 03:23:18;;;;;;;3.47;3.27;;;11.30;99.90;;;11.26;68.04;94505.28;5073775;28;20477;-59
2023/04/19 03:25:46;;;;;;;19.60;11.70;;;11.20;99.90;;;11.25;68.19;94508.09;5074596;28;20577;-63
2023/04/19 03:28:14;;;;;;;25.43;17.07;;;11.20;99.90;;;11.26;68.51;94501.81;5073318;28;20485;-63
2023/04/19 03:30:41;;;;;;;8.17;7.40;;;11.30;99.90;;;11.26;68.32;94505.28;5074257;28;20458;-58
2023/04/19 03:33:08;;;;;;;4.17;3.83;;;11.30;99.90;;;11.24;68.19;94512.50;5072250;28;20474;-60
2023/04/19 03:35:36;;;;;;;23.37;19.43;;;11.20;99.90;;;11.23;68.44;94510.03;5072710;28;20940;-64
2023/04/19 03:38:04;;;;;;;6.63;5.90;;;11.20;99.90;;;11.23;68.56;94507.38;5075633;28;20470;-64
2023/04/19 03:40:33;;;;;;;6.77;6.20;;;11.20;99.90;;;11.22;68.42;94511.84;5071779;28;20505;-58
2023/04/19 03:43:01;;;;;;;8.17;4.97;;;11.20;99.90;;;11.22;68.54;94508.38;5073770;28;20482;-56
2023/04/19 03:45:28;;;;;;;3.00;2.90;;;11.20;99.90;;;11.19;68.48;94511.31;5070061;28;20489;-59
2023/04/19 03:47:55;;;;;;;3.87;3.67;;;11.20;99.90;;;11.17;68.56;94508.84;5075664;28;20482;-64
2023/04/19 03:50:23;;;;;;;3.10;2.90;;;11.20;99.90;;;11.16;68.58;94509.00;5075493;28;20545;-58
2023/04/19 03:52:50;;;;;;;3.30;2.73;;;11.10;99.90;;;11.14;68.48;94506.53;5071555;28;20561;-58
2023/04/19 03:55:18;;;;;;;3.70;3.50;;;11.10;99.90;;;11.12;68.38;94509.31;5077599;28;20450;-63
2023/04/19 03:57:46;;;;;;;3.20;3.00;;;11.10;99.90;;;11.12;68.91;94508.44;5074181;28;20474;-62
2023/04/19 04:00:15;;;;;;;2.70;2.60;;;11.10;99.90;;;11.15;68.87;94512.59;5078307;28;21043;-62
2023/04/19 04:02:42;;;;;;;8.77;5.00;;;11.10;99.90;;;11.14;68.80;94511.78;5074430;28;20467;-63
2023/04/19 04:05:10;;;;;;;4.20;3.80;;;11.10;99.90;;;11.15;68.93;94509.97;5076091;28;20454;-59
2023/04/19 04:07:37;;;;;;;3.60;3.40;;;11.10;99.90;;;11.18;68.93;94512.28;5069788;28;20482;-61
2023/04/19 04:10:06;;;;;;;3.50;3.30;;;11.20;99.90;;;11.21;69.27;94519.88;5075526;28;20450;-58
2023/04/19 04:12:33;;;;;;;3.77;3.47;;;11.20;99.90;;;11.25;68.86;94515.97;5076636;28;20541;-59
2023/04/19 04:15:02;;;;;;;11.57;3.70;;;11.20;99.90;;;11.29;69.91;94510.25;5075164;28;20465;-57
2023/04/19 04:17:30;;;;;;;3.23;3.03;;;11.30;99.90;;;11.39;69.24;94520.69;5075048;28;20478;-61
2023/04/19 04:19:57;;;;;;;3.80;3.50;;;11.30;99.90;;;11.48;69.04;94519.75;5068658;28;20831;-63
2023/04/19 04:22:24;;;;;;;3.43;3.23;;;11.40;99.90;;;11.53;68.33;94513.22;5069018;28;20554;-62
2023/04/19 04:24:52;;;;;;;3.87;3.57;;;11.50;99.90;;;11.54;68.02;94512.22;5068845;28;20486;-59
2023/04/19 04:27:20;;;;;;;8.87;7.77;;;11.50;99.90;;;11.54;68.69;94520.13;5073591;28;20471;-59
2023/04/19 04:29:48;;;;;;;6.40;5.80;;;11.50;99.90;;;11.54;68.17;94520.97;5070477;28;20453;-64
2023/04/19 04:32:17;;;;;;;6.43;5.00;;;11.60;99.90;;;11.56;67.84;94521.63;5069002;28;20502;-58
2023/04/19 04:34:44;;;;;;;6.43;5.30;;;11.60;99.90;;;11.55;67.73;94524.41;5069376;28;20954;-59
2023/04/19 04:37:12;;;;;;;5.27;4.13;;;11.50;99.90;;;11.53;68.59;94526.38;5069497;28;20473;-57
2023/04/19 04:39:40;;;;;;;7.40;4.07;;;11.50;99.90;;;11.53;68.19;94523.75;5077502;28;20963;-59
2023/04/19 04:42:07;;;;;;;9.37;5.33;;;11.50;99.90;;;11.54;68.49;94522.75;5075747;28;20578;-55
2023/04/19 04:44:36;;;;;;;3.43;3.13;;;11.50;99.90;;;11.56;67.89;94528.72;5068071;28;20490;-60
2023/04/19 04:47:03;;;;;;;5.50;3.70;;;11.50;99.90;;;11.53;68.03;94529.84;5072922;28;20457;-62
2023/04/19 04:49:32;;;;;;;3.33;3.13;;;11.50;99.90;;;11.51;67.94;94523.91;5070536;28;20454;-61
2023/04/19 04:51:59;;;;;;;3.53;3.30;;;11.50;99.90;;;11.47;67.84;94525.19;5073340;28;20473;-60
2023/04/19 04:54:27;;;;;;;4.10;3.60;;;11.50;99.90;;;11.44;67.80;94528.13;5072076;28;20448;-60
2023/04/19 04:56:54;;;;;;;3.90;3.60;;;11.50;99.90;;;11.42;67.91;94527.47;5077095;28;20473;-62
2023/04/19 04:59:22;;;;;;;4.80;4.50;;;11.40;99.90;;;11.38;67.82;94529.56;5076593;28;20447;-61
2023/04/19 05:01:49;;;;;;;4.97;3.87;;;11.40;99.90;;;11.38;67.86;94528.75;5074720;28;20486;-62
2023/04/19 05:04:16;;;;;;;14.93;4.17;;;11.40;99.90;;;11.34;67.67;94532.66;5072815;28;20453;-63
2023/04/19 05:06:45;;;;;;;49.83;8.80;;;11.30;99.90;;;11.30;68.18;94526.88;5076973;28;20528;-59
2023/04/19 05:09:12;;;;;;;37.77;10.50;;;11.30;99.90;;;11.28;68.54;94534.09;5070152;28;20451;-58
2023/04/19 05:11:40;;;;;;;44.30;5.97;;;11.30;99.90;;;11.28;68.37;94542.00;5076489;28;20549;-62
2023/04/19 05:14:07;;;;;;;36.57;5.50;;;11.30;99.90;;;11.29;68.79;94541.00;5073403;28;20458;-61
2023/04/19 05:16:34;;;;;;;22.93;4.80;;;11.30;99.90;;;11.29;68.37;94535.75;5078306;28;20484;-58
2023/04/19 05:19:02;;;;;;;22.07;4.60;;;11.30;99.90;;;11.29;68.41;94538.38;5073464;28;20454;-62
2023/04/19 05:21:29;;;;;;;20.47;4.70;;;11.30;99.90;;;11.28;68.36;94540.19;5076926;28;21127;-59
2023/04/19 05:23:58;;;;;;;44.27;5.90;;;11.30;99.90;;;11.29;68.59;94538.38;5073981;28;20835;-62
2023/04/19 05:26:26;;;;;;;4.87;3.80;;;11.20;99.90;;;11.29;68.06;94544.47;5077521;28;20461;-62
2023/04/19 05:28:53;;;;;;;6.60;3.63;;;11.30;99.90;;;11.31;67.98;94536.44;5073218;28;20454;-61
2023/04/19 05:31:21;;;;;;;3.63;3.40;;;11.30;99.90;;;11.29;68.37;94536.59;5072060;28;20457;-61
2023/04/19 05:33:48;;;;;;;4.73;4.33;;;11.30;99.90;;;11.32;68.42;94545.97;5071990;28;20458;-57
2023/04/19 05:36:15;;;;;;;3.73;3.43;;;11.30;99.90;;;11.34;68.37;94544.03;5077458;28;20455;-62
2023/04/19 05:38:43;;;;;;;5.13;4.13;;;11.30;99.90;;;11.38;68.46;94544.53;5074073;28;20451;-58
2023/04/19 05:41:12;;;;;;;3.30;3.10;;;11.30;99.90;;;11.37;68.11;94541.09;5078205;28;20501;-58
2023/04/19 05:43:39;;;;;;;3.77;3.47;;;11.40;99.90;;;11.42;68.06;94545.91;5073123;28;21076;-61
2023/04/19 05:46:06;;;;;;;5.17;3.40;;;11.40;99.90;;;11.44;68.13;94547.38;5071159;28;20439;-59
2023/04/19 05:48:34;;;;;;;6.40;3.90;;;11.40;99.90;;;11.44;67.75;94539.47;5079804;28;20513;-63
2023/04/19 05:51:01;;;;;;;4.03;3.47;;;11.40;99.90;;;11.50;68.15;94537.22;5072156;28;20498;-59
2023/04/19 05:53:28;;;;;;;4.20;3.80;;;11.50;99.90;;;11.54;68.26;94536.78;5078689;28;20473;-58
2023/04/19 05:55:56;;;;;;;5.17;4.77;;;11.50;99.90;;;11.59;68.12;94541.56;5070987;28;20471;-59
2023/04/19 05:58:24;;;;;;;7.53;4.60;;;11.50;99.90;;;11.63;68.20;94541.13;5078840;28;21189;-58
2023/04/19 06:00:52;;;;;;;4.43;4.03;;;11.60;99.90;;;11.68;68.09;94540.66;5077437;28;20970;-62
2023/04/19 06:03:19;;;;;;;7.43;4.43;;;11.60;99.90;;;11.74;67.80;94540.03;5075601;28;20466;-63
2023/04/19 06:05:47;;;;;;;7.43;4.00;;;11.70;99.90;;;11.78;67.53;94541.34;5078074;28;20473;-59
2023/04/19 06:08:16;;;;;;;4.97;4.47;;;11.70;99.90;;;11.85;67.85;94549.50;5083380;28;20496;-63
2023/04/19 06:10:46;;;;;;;4.13;3.83;;;11.80;99.90;;;11.89;68.34;94547.34;5074914;28;20524;-58
2023/04/19 06:13:13;;;;;;;7.00;3.90;;;11.80;99.90;;;11.94;67.60;94550.38;5079938;28;20854;-62
2023/04/19 06:15:42;;;;;;;4.07;3.10;;;11.90;99.90;;;11.95;67.12;94544.94;5080922;28;20446;-62
2023/04/19 06:18:10;;;;;;;3.80;3.50;;;11.90;99.90;;;12.00;67.50;94549.75;5077503;28;20467;-59
2023/04/19 06:20:37;;;;;;;3.50;3.13;;;11.90;99.90;;;12.04;67.25;94552.88;5072915;28;20466;-59
2023/04/19 06:23:04;;;;;;;4.60;4.20;;;12.00;99.90;;;12.07;67.11;94550.78;5078642;28;20467;-63
2023/04/19 06:25:32;;;;;;;5.20;4.63;;;12.00;99.90;;;12.12;67.33;94548.50;5080730;28;20472;-58
2023/04/19 06:27:59;;;;;;;5.70;4.40;;;12.10;99.90;;;12.18;66.92;94553.13;5076346;28;20520;-62
2023/04/19 06:30:27;;;;;;;9.03;3.70;;;12.10;99.90;;;12.23;66.95;94550.03;5074308;28;20831;-61
2023/04/19 06:32:56;;;;;;;4.53;3.33;;;12.20;99.90;;;12.26;66.10;94549.72;5074978;28;21025;-62
2023/04/19 06:35:24;;;;;;;4.10;3.60;;;12.20;99.90;;;12.28;66.09;94553.00;5082799;28;20457;-62
2023/04/19 06:37:51;;;;;;;5.60;4.07;;;12.20;99.90;;;12.29;66.17;94559.13;5075408;28;20466;-63
2023/04/19 06:40:19;;;;;;;3.70;3.40;;;12.30;99.90;;;12.31;66.11;94559.78;5078970;28;20458;-59
2023/04/19 06:42:46;;;;;;;5.20;3.07;;;12.30;99.90;;;12.30;65.81;94560.75;5077239;28;20517;-59
2023/04/19 06:45:15;;;;;;;3.90;3.53;;;12.30;99.90;;;12.30;66.19;94555.50;5078930;28;20458;-57
2023/04/19 06:47:42;;;;;;;3.83;3.53;;;12.30;99.90;;;12.33;66.46;94560.44;5073653;28;20493;-63
2023/04/19 06:50:12;;;;;;;4.40;3.20;;;12.30;99.90;;;12.36;66.27;94560.97;5080025;28;20462;-58
2023/04/19 06:52:39;;;;;;;3.80;3.20;;;12.30;99.90;;;12.42;65.88;94558.69;5075332;28;21041;-61
2023/04/19 06:55:07;;;;;;;3.77;3.47;;;12.30;99.90;;;12.46;66.28;94560.03;5075208;28;20896;-63
2023/04/19 06:57:35;;;;;;;3.30;3.00;;;12.40;99.90;;;12.48;65.87;94564.13;5076573;28;20469;-58
2023/04/19 07:00:05;;;;;;;8.30;3.90;;;12.40;99.90;;;12.51;66.11;94563.81;5079645;28;20457;-59
2023/04/19 07:02:33;;;;;;;3.50;3.30;;;12.50;99.90;;;12.53;65.94;94558.38;5072716;28;20495;-63
2023/04/19 07:05:00;;;;;;;7.37;3.90;;;12.50;99.90;;;12.61;65.75;94565.50;5080007;28;21313;-60
2023/04/19 07:07:29;;;;;;;5.90;3.70;;;12.50;99.90;;;12.63;65.25;94566.19;5075967;28;20482;-58
2023/04/19 07:09:56;;;;;;;3.90;3.60;;;12.60;99.90;;;12.64;nan;94566.03;5079888;28;20442;-59
2023/04/19 07:12:23;;;;;;;5.53;3.93;;;12.60;99.90;;;12.67;65.39;94567.50;5078980;28;20550;-62
2023/04/19 07:14:55;;;;;;;2.83;2.63;;;12.60;99.90;;;12.72;65.41;94565.22;5077901;28;20454;-64
2023/04/19 07:17:22;;;;;;;3.97;3.67;;;12.60;99.90;;;12.74;65.29;94574.63;5075649;28;20467;-62
2023/04/19 07:19:49;;;;;;;3.60;3.30;;;12.70;99.90;;;12.77;64.99;94568.19;5076406;28;20461;-62
2023/04/19 07:22:17;;;;;;;4.40;3.20;;;12.70;99.90;;;12.78;64.71;94561.94;5078559;28;20497;-59
2023/04/19 07:24:45;;;;;;;3.10;2.90;;;12.70;99.90;;;12.80;64.71;94570.53;5076859;28;20459;-59
2023/04/19 07:27:15;;;;;;;3.30;2.87;;;12.70;99.90;;;12.81;64.64;94569.53;5078389;28;20481;-61
2023/04/19 07:29:42;;;;;;;2.70;2.60;;;12.70;99.90;;;12.82;64.33;94576.47;5071293;28;20457;-60
2023/04/19 07:32:10;;;;;;;3.50;2.63;;;12.70;99.90;;;12.83;64.49;94570.19;5075391;28;20477;-62
2023/04/19 07:34:40;;;;;;;5.23;2.40;;;12.80;99.90;;;12.85;64.71;94570.84;5071589;28;20457;-62
2023/04/19 07:37:07;;;;;;;3.23;2.97;;;12.80;99.90;;;12.91;64.45;94578.13;5079984;28;20470;-59
2023/04/19 07:39:34;;;;;;;2.87;2.60;;;12.80;99.90;;;12.95;64.33;94569.88;5073693;28;20459;-60
2023/04/19 07:42:03;;;;;;;4.60;3.53;;;12.90;99.90;;;12.99;64.10;94565.94;5080986;28;20841;-58
2023/04/19 07:44:31;;;;;;;3.13;2.60;;;12.90;99.90;;;13.04;64.05;94564.47;5074695;28;20840;-62
2023/04/19 07:46:58;;;;;;;3.10;2.80;;;12.90;99.90;;;13.07;63.99;94569.44;5075060;28;21060;-59
2023/04/19 07:49:25;;;;;;;2.80;2.60;;;13.00;99.90;;;13.11;64.08;94571.75;5074260;28;20491;-60
2023/04/19 07:51:53;;;;;;;3.67;2.70;;;13.00;99.90;;;13.16;64.24;94572.09;5079416;28;20981;-59
2023/04/19 07:54:20;;;;;;;9.30;3.50;;;13.10;99.90;;;13.20;63.72;94573.38;5071170;28;20450;-58
2023/04/19 07:56:47;;;;;;;4.80;2.77;;;13.10;99.90;;;13.23;62.54;94573.06;5077299;28;20485;-59
2023/04/19 07:59:16;;;;;;;166.33;18.63;;;13.20;99.90;;;13.23;63.36;94573.06;5074114;28;20459;-59
2023/04/19 08:01:44;;;;;;;309.27;26.87;;;13.20;99.90;;;13.23;62.90;94579.19;5076770;28;20490;-61
2023/04/19 08:04:11;;;;;;;118.10;10.30;;;13.20;99.90;;;13.26;63.31;94576.22;5075693;28;20450;-61
2023/04/19 08:06:39;;;;;;;48.20;7.10;;;13.20;99.90;;;13.28;62.64;94571.59;5075043;28;20470;-61
2023/04/19 08:09:06;;;;;;;70.87;6.37;;;13.20;99.90;;;13.31;62.51;94569.59;5079453;28;20446;-62
2023/04/19 08:11:34;;;;;;;144.43;12.20;;;13.20;99.90;;;13.29;62.82;94572.41;5077209;28;20474;-63
2023/04/19 08:14:01;;;;;;;64.43;5.27;;;13.20;99.90;;;13.24;61.49;94564.16;5076888;28;20457;-62
2023/04/19 08:16:30;;;;;;;76.13;7.63;;;13.20;99.90;;;13.22;62.23;94572.25;5078073;28;20566;-62
2023/04/19 08:18:57;;;;;;;91.57;9.23;;;13.20;99.90;;;13.22;62.78;94569.59;5075949;28;20550;-62
2023/04/19 08:21:25;;;;;;;21.67;5.17;;;13.20;99.90;;;13.24;62.56;94564.97;5076469;28;20585;-62
2023/04/19 08:23:53;;;;;;;18.67;3.80;;;13.20;99.90;;;13.30;61.75;94571.44;5076113;28;20459;-61
2023/04/19 08:26:21;;;;;;;2.80;2.60;;;13.20;99.90;;;13.30;62.29;94567.97;5076805;28;20509;-62
2023/04/19 08:28:50;;;;;;;2.50;2.30;;;13.20;99.90;;;13.33;61.98;94568.50;5073409;28;20447;-62
2023/04/19 08:31:18;;;;;;;2.87;2.67;;;13.20;99.90;;;13.40;62.33;94569.50;5071227;28;20914;-62
2023/04/19 08:33:47;;;;;;;2.90;2.50;;;13.30;99.90;;;13.47;62.06;94569.66;5077178;28;20524;-63
2023/04/19 08:36:15;;;;;;;2.40;2.00;;;13.40;99.90;;;13.52;61.71;94567.34;5073829;28;20455;-62
2023/04/19 08:38:42;;;;;;;2.20;2.00;;;13.40;99.90;;;13.55;61.35;94559.06;5078531;28;20457;-62
2023/04/19 08:41:13;;;;;;;3.40;2.60;;;13.50;99.90;;;13.56;61.16;94562.56;5075354;28;20840;-63
2023/04/19 08:43:40;;;;;;;4.20;2.50;;;13.50;99.90;;;13.57;61.28;94562.41;5075721;28;20454;-61
2023/04/19 08:46:08;;;;;;;4.57;2.43;;;13.50;99.90;;;13.62;60.97;94554.78;5072025;28;20474;-62
2023/04/19 08:48:36;;;;;;;2.70;2.50;;;13.50;99.80;;;13.69;61.47;94557.56;5075966;28;20477;-61
2023/04/19 08:51:05;;;;;;;2.70;2.50;;;13.60;99.90;;;13.79;61.69;94552.13;5073195;28;20979;-59
2023/04/19 08:53:34;;;;;;;2.90;1.93;;;13.70;99.90;;;13.91;61.32;94557.88;5079683;28;20484;-61
2023/04/19 08:56:03;;;;;;;2.70;2.50;;;13.80;99.90;;;14.06;61.25;94552.75;5069506;28;20953;-63
2023/04/19 08:58:32;;;;;;;2.13;2.03;;;13.90;99.90;;;14.21;60.25;94552.88;5076336;28;20522;-62
2023/04/19 09:00:59;;;;;;;2.17;1.97;;;14.10;99.10;;;14.37;60.19;94554.63;5076246;28;20483;-62
2023/04/19 09:03:27;;;;;;;6.73;2.17;;;14.20;99.20;;;14.57;59.81;94558.53;5070968;28;20586;-61
2023/04/19 09:05:54;;;;;;;4.00;2.17;;;14.40;99.30;;;14.79;57.76;94551.66;5075910;28;20450;-63
2023/04/19 09:08:26;;;;;;;1.80;1.70;;;14.60;97.80;;;14.99;58.30;94554.69;5078366;28;20490;-58
2023/04/19 09:10:54;;;;;;;2.20;2.10;;;14.90;98.00;;;15.18;58.17;94537.53;5075882;28;20508;-61
2023/04/19 09:13:21;;;;;;;2.83;2.50;;;15.00;97.80;;;15.39;58.19;94539.50;5076278;28;20482;-60
2023/04/19 09:15:50;;;;;;;9.80;2.90;;;15.20;97.90;;;15.64;57.77;94541.16;5079275;28;20874;-62
2023/04/19 09:18:18;;;;;;;5.70;2.70;;;15.40;97.50;;;15.87;57.21;94535.84;5073501;28;20532;-61
2023/04/19 09:20:45;;;;;;;3.10;2.50;;;15.70;97.20;;;16.08;56.83;94532.47;5078077;28;20522;-60
2023/04/19 09:23:14;;;;;;;2.80;1.50;;;15.90;96.90;;;16.24;56.04;94532.28;5073393;28;20497;-59
2023/04/19 09:25:53;;;;;;;4.40;2.23;;;16.10;96.10;;;16.53;55.47;94524.50;5078302;28;20450;-59
2023/04/19 09:28:21;;;;;;;9.63;2.47;;;16.30;96.10;;;16.78;55.23;94528.47;5073288;28;20832;-60
2023/04/19 09:30:49;;;;;;;372.60;28.77;;;16.50;95.80;;;16.94;53.77;94521.34;5073273;28;20451;-58
2023/04/19 09:33:33;;;;;;;30.60;5.57;;;16.70;94.30;;;17.08;54.01;94531.09;5076654;28;20482;-62
2023/04/19 09:36:01;;;;;;;72.17;8.43;;;16.90;94.50;;;17.16;52.95;94524.81;5076349;28;20443;-62
2023/04/19 09:38:29;;;;;;;165.80;11.83;;;17.00;93.30;;;17.29;52.64;94529.44;5078243;28;20470;-61
2023/04/19 09:41:09;;;;;;;48.33;6.37;;;17.10;92.90;;;17.39;48.83;94524.66;5077759;28;20512;-59
2023/04/19 09:43:36;;;;;;;12.80;2.53;;;17.20;89.50;;;17.39;50.88;94529.97;5081989;28;20897;-62
2023/04/19 09:46:04;;;;;;;16.33;2.40;;;17.30;90.30;;;17.45;52.05;94525.72;5077620;28;20457;-62
2023/04/19 09:48:32;;;;;;;9.20;1.90;;;17.30;91.60;;;17.61;51.58;94528.09;5080451;28;20523;-59
2023/04/19 09:51:00;;;;;;;5.63;2.50;;;17.40;91.30;;;17.81;51.67;94517.63;5076349;28;20979;-62
2023/04/19 09:53:29;;;;;;;2.37;1.93;;;17.60;91.60;;;18.00;51.18;94532.13;5082900;28;20469;-61
2023/04/19 09:55:57;;;;;;;2.90;2.07;;;17.80;90.90;;;18.07;50.98;94522.34;5072451;28;20453;-61
2023/04/19 09:58:26;;;;;;;3.47;2.07;;;17.90;90.30;;;18.04;50.91;94516.59;5083118;28;20472;-61
2023/04/19 10:00:53;;;;;;;7.40;2.70;;;17.90;90.10;;;18.02;51.02;94513.31;5078813;28;20453;-62
2023/04/19 10:03:22;;;;;;;2.00;1.90;;;17.90;90.30;;;17.99;50.10;94519.03;5077296;28;20497;-60
2023/04/19 10:05:50;;;;;;;2.93;2.73;;;17.90;88.80;;;17.91;50.45;94515.50;5077116;28;20705;-60
2023/04/19 10:08:17;;;;;;;8.80;1.73;;;17.80;87.70;;;17.90;51.09;94516.50;5080296;28;20466;-62
2023/04/19 10:10:46;;;;;;;1.77;1.67;;;17.80;89.60;;;17.89;50.84;94512.22;5078792;28;20467;-62
2023/04/19 10:13:13;;;;;;;2.10;2.00;;;17.80;89.20;;;18.02;50.88;94508.81;5081611;28;20471;-62
2023/04/19 10:15:42;;;;;;;1.87;1.77;;;17.90;89.20;;;18.18;50.08;94512.19;5073712;28;20944;-60
2023/04/19 10:18:10;;;;;;;2.00;1.80;;;18.00;89.00;;;18.31;49.93;94514.09;5080411;28;20993;-61
2023/04/19 10:20:42;;;;;;;1.77;1.67;;;18.10;88.80;;;18.44;49.13;94506.19;5076318;28;20455;-62